createdAt,value
2024-03-05T00:03:00.456Z,99840.28
2024-03-05T00:06:03.672Z,99852.47
2024-03-05T00:09:06.638Z,99843.69
2024-03-05T00:12:09.565Z,99849.81
2024-03-05T00:15:12.295Z,99854.81
2024-03-05T00:18:15.311Z,99852.97
2024-03-05T00:21:19.007Z,99858.13
2024-03-05T00:24:22.037Z,99852.16
2024-03-05T00:27:26.990Z,99858.91
2024-03-05T00:30:29.728Z,99865.28
2024-03-05T00:33:32.758Z,99852.34
2024-03-05T00:36:35.479Z,99859.22
2024-03-05T00:39:37.902Z,99861.88
2024-03-05T00:42:41.026Z,99860.09
2024-03-05T00:45:44.034Z,99864.81
2024-03-05T00:48:46.898Z,99864.94
2024-03-05T00:51:50.742Z,99861.47
2024-03-05T00:54:53.773Z,99859.09
2024-03-05T00:57:56.438Z,99853.94
2024-03-05T01:00:59.557Z,99854.81
2024-03-05T01:04:02.443Z,99864.47
2024-03-05T01:07:05.413Z,99864.53
2024-03-05T01:10:08.699Z,99858.34
2024-03-05T01:13:11.535Z,99860.38
2024-03-05T01:16:14.360Z,99866.78
2024-03-05T01:19:17.478Z,99860.59
2024-03-05T01:22:20.459Z,99867.66
2024-03-05T01:25:23.500Z,99865.22
2024-03-05T01:28:29.449Z,99853.12
2024-03-05T01:31:35.511Z,99858.28
2024-03-05T01:34:38.539Z,99862.38
2024-03-05T01:37:41.708Z,99859.91
2024-03-05T01:40:44.624Z,99859.09
2024-03-05T01:43:47.623Z,99868.50
2024-03-05T01:46:52.740Z,99861.56
2024-03-05T01:49:56.553Z,99862.38
2024-03-05T01:52:59.190Z,99858.84
2024-03-05T01:56:02.233Z,99856.31
2024-03-05T01:59:06.519Z,99857.19
2024-03-05T02:02:11.850Z,99853.78
2024-03-05T02:05:15.098Z,99857.34
2024-03-05T02:08:19.095Z,99856.31
2024-03-05T02:11:22.517Z,99855.34
2024-03-05T02:14:27.886Z,99853.66
2024-03-05T02:17:31.274Z,99860.41
2024-03-05T02:20:33.789Z,99861.06
2024-03-05T02:23:36.489Z,99859.97
2024-03-05T02:26:38.914Z,99859.03
2024-03-05T02:29:42.081Z,99861.47
2024-03-05T02:32:44.855Z,99861.41
2024-03-05T02:35:49.932Z,99860.25
2024-03-05T02:38:53.470Z,99873.31
2024-03-05T02:41:56.237Z,99876.56
2024-03-05T02:44:58.798Z,99879.97
2024-03-05T02:48:04.946Z,99890.50
2024-03-05T02:51:08.561Z,99892.63
2024-03-05T02:54:11.335Z,99895.50
2024-03-05T02:57:14.927Z,99899.97
2024-03-05T03:00:21.184Z,99900.81
2024-03-05T03:03:24.047Z,99901.19
2024-03-05T03:06:27.261Z,99897.88
2024-03-05T03:09:29.892Z,99892.56
2024-03-05T03:12:32.944Z,99901.13
2024-03-05T03:15:35.393Z,99894.41
2024-03-05T03:18:38.395Z,99896.25
2024-03-05T03:21:41.192Z,99904.66
2024-03-05T03:24:44.162Z,99904.88
2024-03-05T03:27:47.860Z,99901.75
2024-03-05T03:30:56.131Z,99908.91
2024-03-05T03:33:58.888Z,99902.78
2024-03-05T03:37:01.889Z,99917.59
2024-03-05T03:40:08.604Z,99915.09
2024-03-05T03:43:11.559Z,99922.78
2024-03-05T03:46:14.355Z,99913.59
2024-03-05T03:49:21.821Z,99925.16
2024-03-05T03:52:24.565Z,99912.31
2024-03-05T03:55:28.074Z,99913.25
2024-03-05T03:58:32.113Z,99912.44
2024-03-05T04:01:36.325Z,99912.50
2024-03-05T04:04:39.519Z,99916.19
2024-03-05T04:07:42.131Z,99907.72
2024-03-05T04:10:44.989Z,99907.91
2024-03-05T04:13:47.740Z,99907.97
2024-03-05T04:16:51.148Z,99914.97
2024-03-05T04:19:53.750Z,99912.41
2024-03-05T04:22:56.785Z,99923.91
2024-03-05T04:26:03.180Z,99928.53
2024-03-05T04:29:07.689Z,99926.13
2024-03-05T04:32:10.744Z,99924.56
2024-03-05T04:35:14.936Z,99935.19
2024-03-05T04:38:17.764Z,99940.28
2024-03-05T04:41:20.667Z,99935.72
2024-03-05T04:44:25.570Z,99927.84
2024-03-05T04:47:28.599Z,99934.16
2024-03-05T04:50:31.442Z,99936.19
2024-03-05T04:53:34.804Z,99928.50
2024-03-05T04:56:50.731Z,99927.16
2024-03-05T04:59:53.893Z,99934.28
2024-03-05T05:02:57.697Z,99934.56
2024-03-05T05:06:01.507Z,99925.63
2024-03-05T05:09:06.776Z,99928.38
2024-03-05T05:12:09.509Z,99937.06
2024-03-05T05:15:13.587Z,99938.03
2024-03-05T05:18:16.600Z,99932.59
2024-03-05T05:21:19.802Z,99942.88
2024-03-05T05:24:22.764Z,99944.72
2024-03-05T05:27:25.841Z,99946.53
2024-03-05T05:30:28.887Z,99944.62
2024-03-05T05:33:33.451Z,99950.09
2024-03-05T05:36:37.540Z,99953.88
2024-03-05T05:39:39.986Z,99944.97
2024-03-05T05:42:43.633Z,99958.19
2024-03-05T05:45:50.007Z,99958.56
2024-03-05T05:48:53.943Z,99956.03
2024-03-05T05:51:56.981Z,99957.38
2024-03-05T05:55:00.200Z,99957.38
2024-03-05T05:58:05.399Z,99948.84
2024-03-05T06:01:10.927Z,99958.72
2024-03-05T06:04:16.600Z,99954.59
2024-03-05T06:07:19.589Z,99962.81
2024-03-05T06:10:25.823Z,99964.13
2024-03-05T06:13:29.167Z,99962.69
2024-03-05T06:16:32.534Z,99961.97
2024-03-05T06:19:36.381Z,99972.88
2024-03-05T06:22:43.091Z,99975.12
2024-03-05T06:25:45.829Z,99969.41
2024-03-05T06:28:48.605Z,99979.44
2024-03-05T06:31:51.665Z,99969.34
2024-03-05T06:34:55.586Z,99974.81
2024-03-05T06:37:59.508Z,99972.56
2024-03-05T06:41:04.406Z,99974.16
2024-03-05T06:44:12.619Z,99981.56
2024-03-05T06:47:18.099Z,99974.53
2024-03-05T06:50:21.111Z,99983.22
2024-03-05T06:53:42.920Z,99984.63
2024-03-05T06:56:45.687Z,99996.78
2024-03-05T06:59:51.050Z,99993.37
2024-03-05T07:12:10.112Z,100009.03
2024-03-05T07:15:15.987Z,100009.47
2024-03-05T07:18:18.931Z,100008.56
2024-03-05T07:21:24.009Z,100014.63
2024-03-05T07:24:29.935Z,100014.50
2024-03-05T07:27:32.716Z,100011.81
2024-03-05T07:30:36.246Z,100016.97
2024-03-05T07:33:39.858Z,100018.19
2024-03-05T07:36:45.188Z,100018.00
2024-03-05T07:39:47.947Z,100012.59
2024-03-05T07:42:54.514Z,100011.38
2024-03-05T07:45:57.699Z,100019.81
2024-03-05T07:49:00.645Z,100019.97
2024-03-05T07:52:03.773Z,100023.34
2024-03-05T07:55:11.199Z,100017.47
2024-03-05T07:58:14.253Z,100029.59
2024-03-05T08:01:17.015Z,100017.41
2024-03-05T08:04:19.905Z,100033.19
2024-03-05T08:07:22.690Z,100027.81
2024-03-05T08:10:26.906Z,100041.00
2024-03-05T08:13:29.761Z,100032.69
2024-03-05T08:16:35.427Z,100040.00
2024-03-05T08:19:38.266Z,100039.09
2024-03-05T08:22:43.323Z,100037.31
2024-03-05T08:25:56.104Z,100045.53
2024-03-05T08:29:02.038Z,100043.16
2024-03-05T08:32:07.975Z,100058.34
2024-03-05T08:35:13.173Z,100057.66
2024-03-05T08:38:15.730Z,100048.31
2024-03-05T08:41:19.003Z,100051.56
2024-03-05T08:44:22.968Z,100064.34
2024-03-05T08:47:26.260Z,100050.94
2024-03-05T08:53:56.444Z,100062.59
2024-03-05T08:56:59.715Z,100061.19
2024-03-05T09:00:13.343Z,100057.81
2024-03-05T09:03:24.610Z,100057.78
2024-03-05T09:06:28.359Z,100058.34
2024-03-05T09:09:31.605Z,100058.41
2024-03-05T09:12:34.649Z,100060.50
2024-03-05T09:15:41.599Z,100061.41
2024-03-05T09:18:46.410Z,100068.25
2024-03-05T09:21:52.130Z,100062.84
2024-03-05T09:24:57.533Z,100067.78
2024-03-05T09:28:00.124Z,100060.19
2024-03-05T09:31:03.346Z,100057.09
2024-03-05T09:34:05.816Z,100057.84
2024-03-05T09:37:08.929Z,100047.09
2024-03-05T09:40:19.305Z,100055.44
2024-03-05T09:43:23.528Z,100056.69
2024-03-05T09:46:27.549Z,100043.72
2024-03-05T09:49:31.082Z,100045.78
2024-03-05T09:52:35.445Z,100054.25
2024-03-05T09:55:38.622Z,100052.59
2024-03-05T09:58:41.217Z,100053.81
2024-03-05T10:01:51.193Z,100052.78
2024-03-05T10:05:00.227Z,100054.41
2024-03-05T10:08:03.880Z,100056.28
2024-03-05T10:11:41.843Z,100051.25
2024-03-05T10:14:45.104Z,100047.34
2024-03-05T10:17:54.012Z,100049.56
2024-03-05T10:20:57.314Z,100045.44
2024-03-05T10:24:03.681Z,100043.22
2024-03-05T10:27:06.755Z,100050.94
2024-03-05T10:30:21.503Z,100052.34
2024-03-05T10:33:24.557Z,100050.03
2024-03-05T10:36:29.874Z,100045.22
2024-03-05T10:39:32.825Z,100041.59
2024-03-05T10:42:39.295Z,100040.87
2024-03-05T10:45:46.191Z,100052.66
2024-03-05T10:48:52.118Z,100045.69
2024-03-05T10:51:59.621Z,100038.22
2024-03-05T10:55:06.494Z,100042.34
2024-03-05T10:58:14.679Z,100043.22
2024-03-05T11:01:23.129Z,100035.25
2024-03-05T11:04:26.581Z,100041.94
2024-03-05T11:07:29.828Z,100031.13
2024-03-05T11:10:33.021Z,100035.62
2024-03-05T11:13:40.427Z,100032.81
2024-03-05T11:16:48.423Z,100032.63
2024-03-05T11:19:51.009Z,100027.19
2024-03-05T11:22:58.022Z,100021.66
2024-03-05T11:26:03.028Z,100027.19
2024-03-05T11:29:29.832Z,100025.22
2024-03-05T11:32:35.824Z,100023.31
2024-03-05T11:35:43.310Z,100023.72
2024-03-05T11:39:08.557Z,100022.88
2024-03-05T11:42:19.672Z,100031.16
2024-03-05T11:45:48.271Z,100018.97
2024-03-05T11:49:02.082Z,100026.69
2024-03-05T11:52:05.253Z,100026.75
2024-03-05T11:55:10.766Z,100030.44
2024-03-05T11:58:15.176Z,100018.28
2024-03-05T12:01:18.537Z,100019.09
2024-03-05T12:04:21.608Z,100019.47
2024-03-05T12:07:25.105Z,100019.56
2024-03-05T12:10:32.979Z,100020.50
2024-03-05T12:13:35.643Z,100023.97
2024-03-05T12:16:38.722Z,100024.25
2024-03-05T12:19:41.769Z,100009.50
2024-03-05T12:22:55.064Z,100016.47
2024-03-05T12:25:57.812Z,100019.28
2024-03-05T12:29:02.265Z,100019.34
2024-03-05T12:32:10.255Z,100015.97
2024-03-05T12:35:15.159Z,100016.81
2024-03-05T12:38:17.752Z,100013.41
2024-03-05T12:41:21.478Z,100008.25
2024-03-05T12:44:27.143Z,100011.03
2024-03-05T12:47:30.469Z,100010.22
2024-03-05T12:50:34.006Z,100008.50
2024-03-05T12:53:36.922Z,100012.94
2024-03-05T12:56:43.928Z,100008.53
2024-03-05T12:59:46.872Z,100007.66
2024-03-05T13:02:49.862Z,100001.53
2024-03-05T13:05:53.056Z,100014.75
2024-03-05T13:08:55.807Z,100014.78
2024-03-05T13:11:59.414Z,100018.31
2024-03-05T13:15:02.352Z,100014.81
2024-03-05T13:18:07.004Z,100013.94
2024-03-05T13:21:10.431Z,100013.06
2024-03-05T13:24:13.794Z,100007.81
2024-03-05T13:27:16.534Z,100015.69
2024-03-05T13:30:23.909Z,100007.78
2024-03-05T13:33:26.796Z,100013.06
2024-03-05T13:36:30.234Z,100021.84
2024-03-05T13:39:32.908Z,100020.09
2024-03-05T13:42:37.917Z,100019.19
2024-03-05T13:45:43.613Z,100017.44
2024-03-05T13:48:47.001Z,100015.66
2024-03-05T13:51:49.700Z,100022.69
2024-03-05T13:54:52.803Z,100022.69
2024-03-05T13:57:55.600Z,100021.81
2024-03-05T14:01:01.271Z,100016.53
2024-03-05T14:04:10.741Z,100016.53
2024-03-05T14:07:16.463Z,100019.13
2024-03-05T14:10:20.004Z,100020.88
2024-03-05T14:13:22.932Z,100022.59
2024-03-05T14:16:26.132Z,100027.84
2024-03-05T14:19:29.653Z,100034.88
2024-03-05T14:22:33.087Z,100027.84
2024-03-05T14:25:36.214Z,100033.09
2024-03-05T14:28:39.986Z,100033.97
2024-03-05T14:31:43.185Z,100033.94
2024-03-05T14:34:46.096Z,100033.06
2024-03-05T14:37:48.928Z,100035.66
2024-03-05T14:40:55.840Z,100033.00
2024-03-05T14:43:58.650Z,100046.16
2024-03-05T14:47:02.580Z,100044.37
2024-03-05T14:50:06.305Z,100050.41
2024-03-05T14:53:09.612Z,100051.25
2024-03-05T14:56:12.678Z,100051.22
2024-03-05T14:59:15.815Z,100053.81
2024-03-05T15:02:18.980Z,100060.78
2024-03-05T15:05:23.644Z,100058.13
2024-03-05T15:08:26.599Z,100059.81
2024-03-05T15:11:29.899Z,100065.03
2024-03-05T15:14:32.786Z,100065.84
2024-03-05T15:17:38.098Z,100063.13
2024-03-05T15:20:42.163Z,100071.81
2024-03-05T15:23:45.695Z,100070.00
2024-03-05T15:26:58.510Z,100079.56
2024-03-05T15:30:15.323Z,100086.53
2024-03-05T15:33:18.571Z,100090.81
2024-03-05T15:36:21.696Z,100088.16
2024-03-05T15:39:24.523Z,100095.97
2024-03-05T15:42:34.182Z,100093.22
2024-03-05T15:45:39.713Z,100104.50
2024-03-05T15:48:43.359Z,100107.03
2024-03-05T15:51:46.144Z,100108.69
2024-03-05T15:54:49.126Z,100118.25
2024-03-05T15:58:01.924Z,100117.22
2024-03-05T16:01:05.968Z,100127.59
2024-03-05T16:04:30.036Z,100118.78
2024-03-05T16:07:33.635Z,100123.88
2024-03-05T16:10:45.007Z,100121.97
2024-03-05T16:13:51.163Z,100128.84
2024-03-05T16:16:57.454Z,100135.72
2024-03-05T16:20:00.267Z,100140.75
2024-03-05T16:23:04.593Z,100145.94
2024-03-05T16:26:08.154Z,100148.34
2024-03-05T16:29:11.275Z,100156.00
2024-03-05T16:32:15.150Z,100160.97
2024-03-05T16:35:19.888Z,100166.06
2024-03-05T16:38:22.468Z,100165.03
2024-03-05T16:41:25.542Z,100170.97
2024-03-05T16:44:28.786Z,100180.44
2024-03-05T16:47:32.137Z,100190.81
2024-03-05T16:50:35.450Z,100195.06
2024-03-05T16:53:38.955Z,100196.59
2024-03-05T16:56:43.470Z,100195.56
2024-03-05T16:59:46.802Z,100198.09
2024-03-05T17:03:01.665Z,100204.97
2024-03-05T17:06:09.151Z,100210.03
2024-03-05T17:09:15.748Z,100215.09
2024-03-05T17:12:19.675Z,100216.66
2024-03-05T17:15:28.683Z,100221.69
2024-03-05T17:18:33.448Z,100224.00
2024-03-05T17:21:36.838Z,100222.81
2024-03-05T17:24:40.562Z,100227.75
2024-03-05T17:27:45.521Z,100216.47
2024-03-05T17:30:49.667Z,100222.56
2024-03-05T17:33:53.653Z,100222.53
2024-03-05T17:36:57.134Z,100232.84
2024-03-05T17:40:09.669Z,100232.69
2024-03-05T17:43:12.705Z,100240.44
2024-03-05T17:46:15.807Z,100237.75
2024-03-05T17:49:18.873Z,100241.06
2024-03-05T17:52:28.223Z,100243.59
2024-03-05T17:55:31.690Z,100239.16
2024-03-05T17:58:34.774Z,100247.91
2024-03-05T18:01:38.490Z,100245.13
2024-03-05T18:04:41.865Z,100245.91
2024-03-05T18:07:46.050Z,100246.59
2024-03-05T18:10:49.073Z,100246.59
2024-03-05T18:13:51.689Z,100251.13
2024-03-05T18:16:55.011Z,100238.72
2024-03-05T18:19:58.696Z,100246.34
2024-03-05T18:23:02.844Z,100246.09
2024-03-05T18:26:07.177Z,100249.34
2024-03-05T18:29:10.585Z,100253.78
2024-03-05T18:32:14.634Z,100252.72
2024-03-05T18:35:19.398Z,100256.16
2024-03-05T18:38:28.405Z,100264.66
2024-03-05T18:41:32.509Z,100261.88
2024-03-05T18:44:35.417Z,100260.06
2024-03-05T18:47:54.461Z,100265.13
2024-03-05T18:51:05.428Z,100258.88
2024-03-05T18:54:08.391Z,100262.25
2024-03-05T18:57:11.976Z,100263.75
2024-03-05T19:00:18.322Z,100263.72
2024-03-05T19:03:22.105Z,100268.03
2024-03-05T19:06:25.339Z,100264.41
2024-03-05T19:09:27.942Z,100260.75
2024-03-05T19:12:31.277Z,100259.72
2024-03-05T19:15:35.298Z,100263.13
2024-03-05T19:18:38.393Z,100264.81
2024-03-05T19:21:42.390Z,100268.88
2024-03-05T19:24:46.801Z,100269.50
2024-03-05T19:27:49.695Z,100267.47
2024-03-05T19:30:53.118Z,100268.09
2024-03-05T19:33:56.141Z,100268.06
2024-03-05T19:36:59.625Z,100277.28
2024-03-05T19:40:04.238Z,100276.88
2024-03-05T19:43:08.261Z,100275.16
2024-03-05T19:46:11.241Z,100278.28
2024-03-05T19:49:17.393Z,100280.06
2024-03-05T19:52:22.793Z,100275.88
2024-03-05T19:55:25.953Z,100277.72
2024-03-05T19:58:29.927Z,100280.41
2024-03-05T20:01:34.477Z,100284.00
2024-03-05T20:04:39.259Z,100284.06
2024-03-05T20:07:42.916Z,100275.31
2024-03-05T20:10:46.864Z,100277.06
2024-03-05T20:13:50.766Z,100273.53
2024-03-05T20:16:54.879Z,100271.63
2024-03-05T20:19:58.637Z,100270.78
2024-03-05T20:23:03.134Z,100271.50
2024-03-05T20:26:09.378Z,100272.09
2024-03-05T20:29:12.869Z,100281.44
2024-03-05T20:32:17.059Z,100280.34
2024-03-05T20:35:20.912Z,100281.75
2024-03-05T20:38:27.383Z,100277.94
2024-03-05T20:41:31.180Z,100283.00
2024-03-05T20:44:33.703Z,100285.50
2024-03-05T20:47:36.698Z,100282.00
2024-03-05T20:50:39.775Z,100276.66
2024-03-05T20:53:44.104Z,100280.03
2024-03-05T20:56:47.143Z,100279.16
2024-03-05T20:59:50.963Z,100278.31
2024-03-05T21:02:55.891Z,100275.59
2024-03-05T21:05:59.889Z,100267.59
2024-03-05T21:09:08.367Z,100280.47
2024-03-05T21:12:13.181Z,100278.72
2024-03-05T21:15:16.321Z,100282.91
2024-03-05T21:18:19.340Z,100281.88
2024-03-05T21:21:23.502Z,100293.81
2024-03-05T21:24:27.557Z,100292.06
2024-03-05T21:27:30.677Z,100292.66
2024-03-05T21:30:34.414Z,100290.00
2024-03-05T21:33:37.434Z,100289.00
2024-03-05T21:36:40.707Z,100277.66
2024-03-05T21:39:43.416Z,100278.50
2024-03-05T21:42:46.975Z,100287.06
2024-03-05T21:45:49.566Z,100285.03
2024-03-05T21:48:52.325Z,100284.91
2024-03-05T21:51:54.894Z,100285.63
2024-03-05T21:54:57.812Z,100274.03
2024-03-05T21:58:00.374Z,100287.22
2024-03-05T22:01:03.376Z,100289.75
2024-03-05T22:04:06.127Z,100291.47
2024-03-05T22:07:08.850Z,100296.44
2024-03-05T22:10:13.050Z,100301.63
2024-03-05T22:13:15.568Z,100296.31
2024-03-05T22:16:20.145Z,100303.88
2024-03-05T22:19:23.214Z,100307.81
2024-03-05T22:22:26.324Z,100307.16
2024-03-05T22:25:28.915Z,100314.44
2024-03-05T22:28:31.730Z,100324.44
2024-03-05T22:31:34.487Z,100319.84
2024-03-05T22:34:37.556Z,100332.69
2024-03-05T22:37:40.523Z,100327.31
2024-03-05T22:40:43.776Z,100330.66
2024-03-05T22:43:46.381Z,100328.56
2024-03-05T22:46:49.425Z,100337.75
2024-03-05T22:49:52.334Z,100330.66
2024-03-05T22:52:55.218Z,100336.59
2024-03-05T22:55:57.894Z,100343.44
2024-03-05T22:59:00.817Z,100348.56
2024-03-05T23:02:06.005Z,100351.97
2024-03-05T23:05:09.538Z,100344.88
2024-03-05T23:08:13.643Z,100350.00
2024-03-05T23:11:17.287Z,100349.13
2024-03-05T23:14:20.098Z,100348.22
2024-03-05T23:17:23.761Z,100343.09
2024-03-05T23:20:26.699Z,100350.75
2024-03-05T23:23:29.815Z,100353.34
2024-03-05T23:26:32.680Z,100350.53
2024-03-05T23:29:36.078Z,100358.94
2024-03-05T23:32:39.217Z,100354.44
2024-03-05T23:35:42.270Z,100363.66
2024-03-05T23:38:45.598Z,100361.59
2024-03-05T23:41:49.428Z,100368.22
2024-03-05T23:44:53.803Z,100364.47
2024-03-05T23:47:57.256Z,100366.69
2024-03-05T23:51:00.290Z,100362.19
2024-03-05T23:54:08.046Z,100367.31
2024-03-05T23:57:12.205Z,100361.38
